Time;durP1;ratioP1;P1;durP2;ratioP2;P2;SDS_P1;SDS_P2;PMS_P1;PMS_P2;Temp;Humidity;BMP_temperature;BMP_pressure;BME280_temperature;BME280_humidity;BME280_pressure;Samples;Min_cycle;Max_cycle;Signal;HPM_P1;HPM_P2
2023/04/29 00:01:34;;;;;;;66.13;31.97;;;11.00;99.90;;;;;;4937821;29;20240;-77
2023/04/29 00:04:01;;;;;;;68.23;32.50;;;11.00;99.90;;;;;;4918137;29;20649;-77
2023/04/29 00:06:29;;;;;;;63.33;30.50;;;11.00;99.90;;;;;;4934515;29;20208;-76
2023/04/29 00:08:56;;;;;;;66.43;30.93;;;10.90;99.90;;;;;;4933332;29;20205;-77
2023/04/29 00:11:22;;;;;;;68.60;32.23;;;10.90;99.90;;;;;;4935471;29;20299;-77
2023/04/29 00:13:49;;;;;;;67.23;32.27;;;10.90;99.90;;;;;;4935512;29;20538;-77
2023/04/29 00:16:17;;;;;;;72.00;32.53;;;10.90;99.90;;;;;;4933597;29;20223;-76
2023/04/29 00:18:44;;;;;;;63.40;30.30;;;10.90;99.90;;;;;;4911672;29;20323;-75
2023/04/29 00:21:10;;;;;;;67.73;31.57;;;10.90;99.90;;;;;;4933366;29;20271;-77
2023/04/29 00:23:37;;;;;;;63.60;31.90;;;10.90;99.90;;;;;;4933308;29;20215;-77
2023/04/29 00:26:04;;;;;;;66.30;31.03;;;10.90;99.90;;;;;;4933017;29;20215;-76
2023/04/29 00:28:31;;;;;;;59.63;29.87;;;11.00;99.90;;;;;;4932627;29;20678;-76
2023/04/29 00:30:58;;;;;;;69.93;31.83;;;11.00;99.90;;;;;;4929620;29;20261;-76
2023/04/29 00:33:25;;;;;;;63.10;30.40;;;11.00;99.90;;;;;;4936570;29;20276;-76
2023/04/29 00:35:51;;;;;;;59.30;29.40;;;11.00;99.90;;;;;;4934520;29;20214;-76
2023/04/29 00:38:20;;;;;;;57.40;27.83;;;11.00;99.90;;;;;;4932450;29;20212;-76
2023/04/29 00:40:47;;;;;;;63.33;29.53;;;11.00;99.90;;;;;;4915508;29;20272;-77
2023/04/29 00:43:14;;;;;;;57.53;28.93;;;10.90;99.90;;;;;;4937706;29;20303;-77
2023/04/29 00:45:40;;;;;;;61.33;30.50;;;10.90;99.90;;;;;;4935980;29;20224;-76
2023/04/29 00:48:07;;;;;;;58.83;29.00;;;10.90;99.90;;;;;;4937288;29;21083;-76
2023/04/29 00:50:35;;;;;;;63.10;29.80;;;10.90;99.90;;;;;;4939233;29;20216;-77
2023/04/29 00:53:02;;;;;;;64.50;30.30;;;10.90;99.90;;;;;;4931672;29;20212;-75
2023/04/29 00:55:30;;;;;;;62.10;30.17;;;10.90;99.90;;;;;;4932599;29;20271;-76
2023/04/29 00:57:57;;;;;;;61.90;30.63;;;10.90;99.90;;;;;;4928527;29;20323;-75
2023/04/29 01:00:25;;;;;;;55.67;28.90;;;10.90;99.90;;;;;;4932909;29;20225;-77
2023/04/29 01:02:53;;;;;;;61.20;30.40;;;10.80;99.90;;;;;;4933093;29;20229;-77
2023/04/29 01:05:20;;;;;;;55.63;29.13;;;10.80;99.90;;;;;;4932482;29;20197;-78
2023/04/29 01:08:25;;;;;;;54.90;27.60;;;10.90;99.90;;;;;;4932434;29;20790;-76
2023/04/29 01:11:08;;;;;;;56.00;28.53;;;10.90;99.90;;;;;;4916866;29;20300;-78
2023/04/29 01:13:44;;;;;;;54.27;27.00;;;10.80;99.90;;;;;;4930444;29;20209;-76
2023/04/29 01:16:36;;;;;;;52.10;27.07;;;10.80;99.90;;;;;;4932245;29;20292;-76
2023/04/29 01:19:30;;;;;;;52.57;26.30;;;10.80;99.90;;;;;;4935073;29;20584;-76
2023/04/29 01:21:57;;;;;;;50.20;25.43;;;10.70;99.90;;;;;;4927876;29;20220;-77
2023/04/29 01:24:24;;;;;;;48.33;24.03;;;10.70;99.90;;;;;;4932250;29;20602;-76
2023/04/29 01:26:56;;;;;;;46.50;23.60;;;10.70;99.90;;;;;;4928085;29;20204;-77
2023/04/29 01:29:43;;;;;;;49.67;24.83;;;10.70;99.90;;;;;;4932636;29;20267;-77
2023/04/29 01:32:18;;;;;;;44.17;23.43;;;10.80;99.90;;;;;;4915927;29;20569;-77
2023/04/29 01:35:05;;;;;;;43.40;23.00;;;10.80;99.90;;;;;;4931454;29;20242;-77
2023/04/29 01:37:54;;;;;;;46.00;21.90;;;10.70;99.90;;;;;;4932478;29;20238;-77
2023/04/29 01:40:40;;;;;;;42.40;23.50;;;10.70;99.90;;;;;;4932144;29;20296;-77
2023/04/29 01:43:10;;;;;;;46.43;21.73;;;10.70;99.90;;;;;;4930935;29;20233;-77
2023/04/29 01:45:40;;;;;;;45.47;22.57;;;10.70;99.90;;;;;;4931877;29;20566;-78
2023/04/29 01:48:08;;;;;;;40.27;21.97;;;10.70;99.90;;;;;;4931674;29;20248;-76
2023/04/29 01:50:35;;;;;;;42.40;21.93;;;10.70;99.90;;;;;;4918348;29;20214;-76
2023/04/29 01:53:02;;;;;;;40.10;21.67;;;10.70;99.90;;;;;;4932613;29;20714;-77
2023/04/29 01:55:28;;;;;;;38.67;21.43;;;10.70;99.90;;;;;;4931772;29;20234;-76
2023/04/29 01:57:55;;;;;;;37.23;20.13;;;10.70;99.90;;;;;;4914473;29;20256;-77
2023/04/29 02:00:22;;;;;;;38.20;20.03;;;10.70;99.90;;;;;;4914920;29;20220;-77
2023/04/29 02:02:49;;;;;;;42.27;22.87;;;10.70;99.90;;;;;;4936503;29;20254;-77
2023/04/29 02:05:16;;;;;;;38.77;21.03;;;10.70;99.90;;;;;;4934584;29;20576;-77
2023/04/29 02:07:45;;;;;;;38.90;22.53;;;10.70;99.90;;;;;;4921281;29;20627;-77
2023/04/29 02:10:12;;;;;;;41.30;22.13;;;10.70;99.90;;;;;;4935303;29;20636;-77
2023/04/29 02:12:39;;;;;;;37.63;21.67;;;10.70;99.90;;;;;;4929934;29;20247;-77
2023/04/29 02:15:06;;;;;;;38.03;21.50;;;10.70;99.90;;;;;;4931660;29;20256;-78
2023/04/29 02:17:33;;;;;;;38.90;21.07;;;10.70;99.90;;;;;;4929402;29;20208;-75
2023/04/29 02:20:00;;;;;;;38.63;20.57;;;10.70;99.90;;;;;;4931402;29;20546;-77
2023/04/29 02:22:27;;;;;;;39.07;21.53;;;10.60;99.90;;;;;;4935638;29;20606;-76
2023/04/29 02:24:54;;;;;;;36.70;21.57;;;10.70;99.90;;;;;;4931642;29;20322;-76
2023/04/29 02:27:21;;;;;;;40.70;22.17;;;10.60;99.90;;;;;;4931393;29;20247;-77
2023/04/29 02:29:49;;;;;;;38.57;22.63;;;10.60;99.90;;;;;;4931710;29;20224;-78
2023/04/29 02:32:18;;;;;;;38.93;21.57;;;10.60;99.90;;;;;;4931417;29;20279;-76
2023/04/29 02:34:45;;;;;;;37.20;21.93;;;10.50;99.90;;;;;;4931960;29;20260;-77
2023/04/29 02:37:15;;;;;;;35.87;20.47;;;10.50;99.90;;;;;;4927925;29;20254;-77
2023/04/29 02:39:42;;;;;;;39.97;21.43;;;10.60;99.90;;;;;;4931776;29;20287;-77
2023/04/29 02:42:09;;;;;;;41.57;21.77;;;10.50;99.90;;;;;;4931778;29;20360;-77
2023/04/29 02:44:36;;;;;;;44.37;22.23;;;10.60;99.90;;;;;;4931827;29;20288;-76
2023/04/29 02:47:03;;;;;;;47.43;22.37;;;10.70;99.90;;;;;;4931142;29;20233;-78
2023/04/29 02:49:30;;;;;;;39.50;21.67;;;10.50;99.90;;;;;;4932387;29;20268;-76
2023/04/29 02:51:57;;;;;;;41.40;23.17;;;10.60;99.90;;;;;;4935379;29;20213;-78
2023/04/29 02:54:24;;;;;;;43.57;22.97;;;10.50;99.90;;;;;;4934722;29;20279;-76
2023/04/29 02:56:51;;;;;;;42.50;23.77;;;10.60;99.90;;;;;;4934395;29;20265;-76
2023/04/29 02:59:18;;;;;;;40.17;24.37;;;10.60;99.90;;;;;;4936688;29;20716;-77
2023/04/29 03:01:47;;;;;;;40.53;23.93;;;10.70;99.90;;;;;;4934628;29;20326;-76
2023/04/29 03:04:14;;;;;;;42.00;23.87;;;10.60;99.90;;;;;;4933948;29;20203;-77
2023/04/29 03:06:42;;;;;;;41.67;23.50;;;10.50;99.90;;;;;;4934450;29;20236;-77
2023/04/29 03:09:09;;;;;;;40.57;22.77;;;10.50;99.90;;;;;;4934022;29;20611;-76
2023/04/29 03:11:36;;;;;;;40.57;22.53;;;10.40;99.90;;;;;;4934407;29;20232;-77
2023/04/29 03:14:03;;;;;;;35.63;22.13;;;10.50;99.90;;;;;;4933968;29;20324;-76
2023/04/29 03:16:30;;;;;;;40.17;22.57;;;10.50;99.90;;;;;;4934432;29;20239;-75
2023/04/29 03:18:57;;;;;;;40.30;22.23;;;10.50;99.90;;;;;;4939073;29;20238;-75
2023/04/29 03:21:28;;;;;;;34.53;21.07;;;10.50;99.90;;;;;;4934175;29;20375;-76
2023/04/29 03:23:55;;;;;;;43.10;22.77;;;10.40;99.90;;;;;;4933457;29;20216;-75
2023/04/29 03:26:23;;;;;;;40.60;21.67;;;10.50;99.90;;;;;;4931163;29;20261;-74
2023/04/29 03:28:50;;;;;;;39.10;22.03;;;10.50;99.90;;;;;;4933752;29;20699;-76
2023/04/29 03:31:19;;;;;;;44.03;23.90;;;10.40;99.90;;;;;;4937988;29;20213;-76
2023/04/29 03:33:46;;;;;;;40.13;22.77;;;10.40;99.90;;;;;;4933850;29;20200;-76
2023/04/29 03:36:14;;;;;;;40.33;22.50;;;10.40;99.90;;;;;;4934179;29;20344;-77
2023/04/29 03:38:41;;;;;;;39.80;23.37;;;10.30;99.90;;;;;;4933536;29;20319;-76
2023/04/29 03:41:08;;;;;;;44.47;22.67;;;10.30;99.90;;;;;;4933688;29;20220;-77
2023/04/29 03:43:35;;;;;;;43.50;23.77;;;10.30;99.90;;;;;;4934145;29;20239;-77
2023/04/29 03:46:02;;;;;;;43.93;24.37;;;10.40;99.90;;;;;;4933994;29;20271;-77
2023/04/29 03:48:30;;;;;;;39.97;24.00;;;10.40;99.90;;;;;;4933797;29;20294;-78
2023/04/29 03:50:56;;;;;;;46.67;24.10;;;10.30;99.90;;;;;;4934777;29;20743;-77
2023/04/29 03:53:25;;;;;;;41.90;23.87;;;10.30;99.90;;;;;;4934170;29;20297;-76
2023/04/29 03:55:51;;;;;;;43.20;24.60;;;10.40;99.90;;;;;;4934345;29;20288;-76
2023/04/29 03:58:18;;;;;;;44.20;24.67;;;10.40;99.90;;;;;;4933977;29;20600;-76
2023/04/29 04:00:45;;;;;;;45.17;25.63;;;10.40;99.90;;;;;;4916729;29;20262;-77
2023/04/29 04:03:12;;;;;;;47.07;25.13;;;10.40;99.90;;;;;;4932809;29;20252;-76
2023/04/29 04:05:39;;;;;;;42.23;23.00;;;10.40;99.90;;;;;;4933623;29;20318;-79
2023/04/29 04:08:07;;;;;;;42.60;24.83;;;10.40;99.90;;;;;;4915844;29;20206;-76
2023/04/29 04:10:34;;;;;;;42.57;23.53;;;10.30;99.90;;;;;;4933959;29;20212;-76
2023/04/29 04:13:00;;;;;;;41.30;24.23;;;10.30;99.90;;;;;;4933341;29;20278;-76
2023/04/29 04:15:27;;;;;;;42.73;24.17;;;10.30;99.90;;;;;;4933600;29;20641;-77
2023/04/29 04:17:55;;;;;;;40.97;23.53;;;10.30;99.90;;;;;;4932213;29;20243;-75
2023/04/29 04:20:22;;;;;;;44.57;24.57;;;10.20;99.90;;;;;;4935723;29;20610;-77
2023/04/29 04:22:48;;;;;;;37.63;23.13;;;10.30;99.90;;;;;;4936794;29;20350;-76
2023/04/29 04:25:15;;;;;;;37.63;22.77;;;10.30;99.90;;;;;;4922086;29;20216;-77
2023/04/29 04:27:42;;;;;;;49.23;26.00;;;10.30;99.90;;;;;;4939745;29;20242;-77
2023/04/29 04:30:09;;;;;;;44.40;24.10;;;10.10;99.90;;;;;;4933319;29;20226;-78
2023/04/29 04:32:36;;;;;;;41.97;24.07;;;10.20;99.90;;;;;;4932977;29;20705;-78
2023/04/29 04:35:03;;;;;;;38.73;23.37;;;10.30;99.90;;;;;;4932570;29;20757;-78
2023/04/29 04:37:30;;;;;;;41.63;24.83;;;10.30;99.90;;;;;;4933727;29;20619;-76
2023/04/29 04:39:57;;;;;;;47.90;24.63;;;10.40;99.90;;;;;;4933885;29;20295;-77
2023/04/29 04:42:24;;;;;;;35.00;22.23;;;10.40;99.90;;;;;;4921295;29;20324;-76
2023/04/29 04:44:52;;;;;;;39.17;23.83;;;10.40;99.90;;;;;;4932568;29;20305;-79
2023/04/29 04:47:19;;;;;;;37.87;22.40;;;10.40;99.90;;;;;;4929054;29;20302;-76
2023/04/29 04:49:48;;;;;;;37.20;23.43;;;10.40;99.90;;;;;;4936170;29;20291;-77
2023/04/29 04:52:15;;;;;;;35.23;21.43;;;10.40;99.90;;;;;;4932531;29;20267;-78
2023/04/29 04:54:45;;;;;;;39.57;22.97;;;10.30;99.90;;;;;;4932265;29;20214;-77
2023/04/29 04:57:12;;;;;;;40.33;22.90;;;10.30;99.90;;;;;;4932168;29;21044;-77
2023/04/29 04:59:39;;;;;;;34.27;21.47;;;10.30;99.90;;;;;;4932262;29;20327;-77
2023/04/29 05:02:07;;;;;;;35.00;21.07;;;10.30;99.90;;;;;;4932442;29;20198;-77
2023/04/29 05:04:34;;;;;;;39.90;22.40;;;10.40;99.90;;;;;;4915486;29;20279;-77
2023/04/29 05:07:01;;;;;;;37.03;21.57;;;10.40;99.90;;;;;;4929588;29;20690;-79
2023/04/29 05:09:28;;;;;;;37.90;21.73;;;10.40;99.90;;;;;;4931151;29;20304;-77
2023/04/29 05:11:58;;;;;;;38.80;21.60;;;10.40;99.90;;;;;;4932344;29;20303;-77
2023/04/29 05:14:25;;;;;;;35.03;21.13;;;10.40;99.90;;;;;;4929410;29;20235;-78
2023/04/29 05:16:52;;;;;;;33.57;20.27;;;10.50;99.90;;;;;;4934012;29;20232;-77
2023/04/29 05:19:19;;;;;;;36.10;21.07;;;10.50;99.90;;;;;;4914342;29;20298;-77
2023/04/29 05:21:46;;;;;;;38.07;19.80;;;10.50;99.90;;;;;;4930935;29;20652;-78
2023/04/29 05:24:14;;;;;;;36.17;21.80;;;10.60;99.90;;;;;;4931429;29;20224;-76
2023/04/29 05:26:42;;;;;;;37.77;20.53;;;10.60;99.90;;;;;;4932724;29;20223;-77
2023/04/29 05:29:10;;;;;;;36.10;21.00;;;10.50;99.90;;;;;;4932356;29;20243;-77
2023/04/29 05:31:37;;;;;;;38.40;21.97;;;10.50;99.90;;;;;;4932259;29;20223;-78
2023/04/29 05:34:04;;;;;;;38.57;21.97;;;10.60;99.90;;;;;;4927954;29;20347;-78
2023/04/29 05:36:31;;;;;;;39.80;20.80;;;10.60;99.90;;;;;;4931133;29;20219;-77
2023/04/29 05:38:58;;;;;;;39.03;21.93;;;10.60;99.90;;;;;;4932998;29;20575;-78
2023/04/29 05:41:25;;;;;;;37.60;20.90;;;10.60;99.90;;;;;;4932801;29;20293;-82
2023/04/29 05:43:52;;;;;;;35.83;20.80;;;10.70;99.90;;;;;;4932945;29;20598;-80
2023/04/29 05:46:19;;;;;;;35.57;20.07;;;10.70;99.90;;;;;;4914555;29;20204;-82
2023/04/29 05:48:46;;;;;;;37.33;20.60;;;10.70;99.90;;;;;;4916116;29;20238;-80
2023/04/29 05:51:13;;;;;;;34.53;20.70;;;10.70;99.90;;;;;;4909513;29;20201;-82
2023/04/29 05:53:40;;;;;;;38.83;22.87;;;10.70;99.90;;;;;;4916871;29;20766;-80
2023/04/29 05:56:07;;;;;;;35.33;19.67;;;10.70;99.90;;;;;;4931316;29;20232;-79
2023/04/29 05:58:36;;;;;;;32.53;20.10;;;10.70;99.90;;;;;;4933330;29;20241;-79
2023/04/29 06:01:03;;;;;;;34.63;18.80;;;10.70;99.90;;;;;;4932649;29;20312;-80
2023/04/29 06:03:33;;;;;;;37.83;20.40;;;10.70;99.90;;;;;;4936163;29;20329;-80
2023/04/29 06:06:00;;;;;;;39.43;20.10;;;10.80;99.90;;;;;;4911449;29;20213;-82
2023/04/29 06:08:28;;;;;;;34.10;19.23;;;10.80;99.90;;;;;;4935862;29;20204;-80
2023/04/29 06:10:55;;;;;;;42.73;20.13;;;10.90;99.90;;;;;;4915522;29;20208;-80
2023/04/29 06:13:22;;;;;;;36.23;19.67;;;10.90;99.90;;;;;;4932544;29;20208;-81
2023/04/29 06:15:49;;;;;;;33.10;18.30;;;10.90;99.90;;;;;;4933997;29;20276;-81
2023/04/29 06:18:16;;;;;;;35.50;19.93;;;11.00;99.90;;;;;;4934289;29;20272;-79
2023/04/29 06:20:43;;;;;;;32.77;18.67;;;11.10;99.90;;;;;;4927772;29;20676;-79
2023/04/29 06:23:09;;;;;;;34.03;19.00;;;11.00;99.90;;;;;;4937279;29;20265;-80
2023/04/29 06:25:36;;;;;;;34.80;19.47;;;11.00;99.90;;;;;;4928025;29;20201;-79
2023/04/29 06:28:03;;;;;;;33.97;18.30;;;11.10;99.90;;;;;;4938758;29;20299;-81
2023/04/29 06:30:30;;;;;;;33.53;18.50;;;11.20;99.90;;;;;;4934625;29;20293;-81
2023/04/29 06:32:57;;;;;;;30.47;17.63;;;11.30;99.90;;;;;;4924034;29;20700;-81
2023/04/29 06:35:24;;;;;;;38.53;18.60;;;11.40;99.90;;;;;;4933530;29;20316;-81
2023/04/29 06:37:52;;;;;;;30.13;18.23;;;11.40;99.90;;;;;;4935454;29;20201;-81
2023/04/29 06:40:18;;;;;;;32.93;18.40;;;11.40;99.90;;;;;;4934722;29;20207;-79
2023/04/29 06:42:45;;;;;;;28.37;18.23;;;11.50;99.90;;;;;;4936205;29;20315;-81
2023/04/29 06:45:12;;;;;;;30.17;17.73;;;11.60;99.90;;;;;;4936044;29;20263;-81
2023/04/29 06:47:39;;;;;;;32.70;17.33;;;11.60;99.90;;;;;;4920938;29;20205;-80
2023/04/29 06:50:06;;;;;;;31.70;15.97;;;11.70;99.90;;;;;;4937614;29;20296;-81
2023/04/29 06:52:33;;;;;;;29.60;16.07;;;11.80;99.90;;;;;;4944911;29;20568;-80
2023/04/29 06:55:06;;;;;;;28.83;16.40;;;11.90;99.90;;;;;;4942012;29;20295;-79
2023/04/29 06:57:33;;;;;;;27.30;16.67;;;12.00;99.90;;;;;;4916814;29;20571;-82
2023/04/29 07:00:00;;;;;;;26.03;15.20;;;12.10;99.90;;;;;;4914402;29;20297;-80
2023/04/29 07:02:26;;;;;;;26.83;15.93;;;12.10;99.90;;;;;;4920001;29;20314;-81
2023/04/29 07:04:54;;;;;;;26.30;15.63;;;12.10;99.90;;;;;;4934721;29;20197;-79
2023/04/29 07:07:22;;;;;;;29.80;16.23;;;12.40;99.90;;;;;;4922413;29;20206;-81
2023/04/29 07:09:51;;;;;;;27.23;15.10;;;12.30;99.90;;;;;;4937041;29;20547;-82
2023/04/29 07:12:18;;;;;;;25.53;15.10;;;12.40;99.90;;;;;;4917669;29;20219;-81
2023/04/29 07:14:45;;;;;;;26.13;14.80;;;12.40;99.90;;;;;;4938991;29;20256;-82
2023/04/29 07:17:12;;;;;;;25.53;15.80;;;12.50;99.90;;;;;;4934743;29;20245;-82
2023/04/29 07:19:40;;;;;;;23.37;14.37;;;12.50;99.90;;;;;;4932138;29;20243;-82
2023/04/29 07:22:07;;;;;;;23.17;14.77;;;12.60;99.90;;;;;;4936897;29;20609;-80
2023/04/29 07:24:33;;;;;;;26.17;16.23;;;12.70;99.90;;;;;;4941332;29;20266;-81
2023/04/29 07:27:00;;;;;;;27.27;15.00;;;12.80;99.90;;;;;;4939417;29;20657;-83
2023/04/29 07:29:30;;;;;;;29.97;15.97;;;12.90;99.90;;;;;;4936467;29;20280;-80
2023/04/29 07:31:57;;;;;;;25.30;15.00;;;13.10;99.90;;;;;;4934401;29;20670;-83
2023/04/29 07:34:24;;;;;;;21.93;13.33;;;13.30;99.90;;;;;;4933721;29;20210;-83
2023/04/29 07:36:51;;;;;;;26.40;14.40;;;13.40;99.90;;;;;;4921517;29;20202;-81
2023/04/29 07:39:17;;;;;;;19.87;13.33;;;13.40;99.90;;;;;;4938588;29;21560;-82
2023/04/29 07:41:44;;;;;;;23.77;13.67;;;13.40;99.90;;;;;;4934699;29;20209;-81
2023/04/29 07:44:11;;;;;;;21.07;13.83;;;13.50;99.90;;;;;;4933013;29;20594;-81
2023/04/29 07:46:38;;;;;;;19.20;12.57;;;13.70;99.90;;;;;;4935973;29;20264;-82
2023/04/29 07:49:05;;;;;;;27.90;13.97;;;13.90;99.90;;;;;;4920735;29;20209;-81
2023/04/29 07:51:33;;;;;;;22.67;13.90;;;14.10;99.90;;;;;;4934398;29;20209;-82
2023/04/29 07:54:00;;;;;;;21.53;12.93;;;14.30;99.90;;;;;;4935041;29;20284;-80
2023/04/29 07:56:26;;;;;;;20.43;12.77;;;14.40;99.90;;;;;;4932778;29;20299;-80
2023/04/29 07:58:53;;;;;;;23.87;13.60;;;14.40;99.90;;;;;;4932505;29;20261;-80
2023/04/29 08:01:20;;;;;;;20.38;13.15;;;14.60;99.90;;;;;;4933213;29;20205;-80
2023/04/29 08:03:47;;;;;;;18.55;13.15;;;14.60;99.90;;;;;;4932247;29;20236;-80
2023/04/29 08:06:15;;;;;;;20.73;12.80;;;14.70;99.90;;;;;;4935936;29;20666;-80
2023/04/29 08:08:42;;;;;;;21.98;12.85;;;14.80;99.90;;;;;;4933054;29;20201;-80
2023/04/29 08:11:15;;;;;;;17.40;12.00;;;14.90;99.90;;;;;;4931964;29;20209;-81
2023/04/29 08:13:42;;;;;;;20.42;12.73;;;14.90;99.90;;;;;;4934363;29;20216;-80
2023/04/29 08:16:10;;;;;;;19.13;12.65;;;15.00;99.90;;;;;;4933730;29;20221;-80
2023/04/29 08:18:38;;;;;;;17.65;10.93;;;15.00;99.90;;;;;;4933798;29;20758;-82
2023/04/29 08:21:05;;;;;;;16.85;11.32;;;15.10;99.90;;;;;;4934677;29;20248;-81
2023/04/29 08:23:33;;;;;;;16.98;11.45;;;15.30;99.90;;;;;;4933669;29;20328;-80
2023/04/29 08:26:00;;;;;;;19.30;11.73;;;15.40;99.90;;;;;;4934457;29;20256;-80
2023/04/29 08:28:26;;;;;;;18.95;12.38;;;15.70;99.90;;;;;;4933178;29;20225;-80
2023/04/29 08:30:54;;;;;;;20.45;11.30;;;15.80;99.90;;;;;;4934433;29;20243;-80
2023/04/29 08:33:21;;;;;;;18.88;11.48;;;16.10;99.90;;;;;;4913570;29;20206;-81
2023/04/29 08:35:56;;;;;;;15.35;10.32;;;16.50;99.90;;;;;;4933695;29;20217;-81
2023/04/29 08:38:23;;;;;;;18.83;11.73;;;16.70;99.90;;;;;;4933195;29;20808;-81
2023/04/29 08:40:50;;;;;;;13.40;10.10;;;16.80;99.90;;;;;;4933141;29;20670;-80
2023/04/29 08:43:19;;;;;;;16.05;10.45;;;17.10;99.90;;;;;;4933087;29;20234;-80
2023/04/29 08:45:48;;;;;;;14.48;9.98;;;17.40;99.90;;;;;;4935929;29;20284;-80
2023/04/29 08:48:16;;;;;;;16.17;11.02;;;17.60;99.90;;;;;;4927080;29;20205;-80
2023/04/29 08:50:43;;;;;;;15.55;10.13;;;17.70;99.90;;;;;;4930061;29;20678;-79
2023/04/29 08:53:12;;;;;;;15.70;9.95;;;17.60;99.90;;;;;;4933215;29;20215;-80
2023/04/29 08:55:46;;;;;;;14.55;9.13;;;17.90;99.90;;;;;;4932946;29;20201;-79
2023/04/29 08:58:16;;;;;;;15.50;9.15;;;18.30;99.90;;;;;;4932225;29;20241;-81
2023/04/29 09:00:43;;;;;;;14.25;9.13;;;18.50;99.90;;;;;;4913342;29;20631;-79
2023/04/29 09:03:19;;;;;;;14.05;9.35;;;18.60;99.90;;;;;;4932520;29;20210;-79
2023/04/29 09:05:51;;;;;;;13.90;9.52;;;18.70;99.90;;;;;;4932944;29;20312;-80
2023/04/29 09:08:21;;;;;;;14.23;9.60;;;19.00;99.90;;;;;;4932109;29;20580;-81
2023/04/29 09:10:49;;;;;;;13.70;9.45;;;19.30;99.90;;;;;;4915867;29;20292;-80
2023/04/29 09:13:30;;;;;;;14.95;9.57;;;19.60;99.90;;;;;;4936060;29;20619;-79
2023/04/29 09:15:57;;;;;;;16.88;10.15;;;19.60;99.90;;;;;;4931162;29;20689;-80
2023/04/29 09:18:50;;;;;;;13.07;9.63;;;19.20;99.90;;;;;;4915636;29;20218;-78
2023/04/29 09:21:23;;;;;;;12.07;8.23;;;19.10;99.90;;;;;;4932925;29;20422;-80
2023/04/29 09:23:58;;;;;;;12.45;9.05;;;18.90;99.90;;;;;;4927964;29;20262;-81
2023/04/29 09:26:26;;;;;;;14.68;9.05;;;18.70;99.90;;;;;;4932675;29;20337;-80
2023/04/29 09:29:06;;;;;;;12.57;8.95;;;18.60;99.90;;;;;;4932993;29;20626;-80
2023/04/29 09:31:36;;;;;;;11.88;7.60;;;18.50;99.90;;;;;;4932996;29;20275;-79
2023/04/29 09:34:03;;;;;;;8.68;6.97;;;18.20;99.90;;;;;;4932600;29;20213;-81
2023/04/29 09:36:49;;;;;;;9.45;7.00;;;18.00;99.90;;;;;;4923467;29;20571;-79
2023/04/29 09:39:21;;;;;;;9.25;7.35;;;17.80;99.90;;;;;;4910161;29;20209;-80
2023/04/29 09:41:51;;;;;;;15.55;8.63;;;17.60;99.90;;;;;;4933090;29;20249;-79
2023/04/29 09:44:22;;;;;;;14.43;8.00;;;17.50;99.90;;;;;;4932376;29;20229;-81
2023/04/29 09:46:57;;;;;;;11.95;7.95;;;17.50;99.90;;;;;;4932572;29;20239;-80
2023/04/29 09:49:26;;;;;;;12.82;7.72;;;17.60;99.90;;;;;;4932149;29;20235;-80
2023/04/29 09:51:58;;;;;;;10.18;7.47;;;17.60;99.90;;;;;;4932647;29;20260;-78
2023/04/29 09:54:30;;;;;;;12.38;7.32;;;17.70;99.90;;;;;;4932701;29;20249;-79
2023/04/29 09:56:58;;;;;;;9.05;6.88;;;17.30;99.90;;;;;;4932243;29;20205;-79
2023/04/29 09:59:25;;;;;;;9.35;7.00;;;17.20;99.90;;;;;;4916031;29;20303;-79
2023/04/29 10:01:56;;;;;;;10.90;6.70;;;17.00;99.90;;;;;;4935234;29;20213;-80
2023/04/29 10:04:25;;;;;;;11.50;7.18;;;17.00;99.90;;;;;;4935711;29;20232;-80
2023/04/29 10:06:54;;;;;;;11.55;6.75;;;17.00;99.90;;;;;;4913652;29;20216;-78
2023/04/29 10:09:22;;;;;;;10.60;7.43;;;17.10;99.90;;;;;;4937792;29;20209;-80
2023/04/29 10:11:51;;;;;;;11.23;7.05;;;17.40;99.90;;;;;;4918999;29;20212;-80
2023/04/29 10:14:20;;;;;;;13.18;7.03;;;17.90;99.90;;;;;;4918806;29;20238;-78
2023/04/29 10:16:58;;;;;;;11.73;7.40;;;18.30;99.90;;;;;;4918827;29;20674;-79
2023/04/29 10:19:33;;;;;;;11.93;7.45;;;18.70;99.90;;;;;;4934187;29;20244;-80
2023/04/29 10:22:13;;;;;;;9.77;6.82;;;19.00;99.90;;;;;;4934249;29;20590;-80
2023/04/29 10:24:42;;;;;;;12.77;6.95;;;19.40;99.90;;;;;;4934768;29;20238;-80
2023/04/29 10:27:14;;;;;;;10.27;5.97;;;19.60;99.90;;;;;;4936258;29;20258;-79
2023/04/29 10:29:43;;;;;;;9.98;6.18;;;19.70;99.90;;;;;;4915500;29;20225;-82
2023/04/29 10:32:13;;;;;;;10.85;6.13;;;19.60;99.90;;;;;;4941443;29;20216;-79
2023/04/29 10:34:41;;;;;;;9.50;6.43;;;19.20;99.90;;;;;;4939735;29;20221;-79
2023/04/29 10:37:10;;;;;;;8.45;6.05;;;18.80;99.90;;;;;;4938217;29;20189;-81
2023/04/29 10:39:49;;;;;;;7.70;5.88;;;18.60;99.90;;;;;;4936241;29;20252;-80
2023/04/29 10:42:30;;;;;;;7.57;5.68;;;18.70;99.90;;;;;;4934610;29;20247;-80
2023/04/29 10:45:22;;;;;;;11.77;7.03;;;18.90;99.90;;;;;;4935356;29;20771;-81
2023/04/29 10:48:01;;;;;;;8.15;6.32;;;19.20;99.90;;;;;;4918122;29;20221;-81
2023/04/29 10:50:30;;;;;;;9.57;5.97;;;19.40;99.90;;;;;;4927795;29;20217;-81
2023/04/29 10:53:01;;;;;;;9.60;6.47;;;19.50;99.90;;;;;;4927684;29;20253;-81
2023/04/29 10:55:28;;;;;;;8.48;6.20;;;19.50;99.90;;;;;;4913412;29;20205;-80
2023/04/29 10:57:56;;;;;;;10.50;6.75;;;19.40;99.90;;;;;;4934666;29;20248;-82
2023/04/29 11:00:27;;;;;;;10.10;6.18;;;19.30;99.90;;;;;;4934450;29;20221;-82
2023/04/29 11:03:00;;;;;;;8.90;6.25;;;19.10;99.90;;;;;;4933626;29;20221;-82
2023/04/29 11:05:32;;;;;;;8.07;5.90;;;18.80;99.90;;;;;;4933726;29;20308;-80
2023/04/29 11:08:15;;;;;;;10.70;6.03;;;18.50;99.90;;;;;;4932151;29;20661;-78
2023/04/29 11:10:42;;;;;;;9.75;6.25;;;18.50;99.90;;;;;;4934404;29;20667;-82
2023/04/29 11:13:27;;;;;;;8.63;6.47;;;18.60;99.90;;;;;;4937646;29;20611;-79
2023/04/29 11:16:09;;;;;;;9.40;5.82;;;18.60;99.90;;;;;;4933422;29;20227;-79
2023/04/29 11:19:07;;;;;;;8.82;5.85;;;18.70;99.90;;;;;;4934542;29;20697;-80
2023/04/29 11:21:35;;;;;;;8.18;5.35;;;19.00;99.90;;;;;;4916273;29;20737;-79
2023/04/29 11:24:05;;;;;;;8.38;5.75;;;19.00;99.90;;;;;;4934678;29;20229;-81
2023/04/29 11:26:36;;;;;;;8.45;5.93;;;19.00;99.90;;;;;;4934220;29;20216;-80
2023/04/29 11:29:04;;;;;;;10.95;6.30;;;19.10;99.90;;;;;;4934375;29;20264;-81
2023/04/29 11:31:32;;;;;;;10.05;6.50;;;19.10;99.90;;;;;;4916186;29;20559;-80
2023/04/29 11:33:59;;;;;;;9.15;5.57;;;19.30;99.90;;;;;;4934403;29;20213;-80
2023/04/29 11:36:27;;;;;;;9.27;4.95;;;19.50;99.90;;;;;;4933149;29;20213;-81
2023/04/29 11:38:54;;;;;;;7.72;5.25;;;19.50;99.90;;;;;;4933885;29;20766;-80
2023/04/29 11:41:22;;;;;;;10.90;5.60;;;19.50;99.90;;;;;;4933914;29;20209;-80
2023/04/29 11:43:56;;;;;;;8.30;6.18;;;19.30;99.90;;;;;;4934327;29;20217;-80
2023/04/29 11:46:25;;;;;;;10.35;5.75;;;19.10;99.90;;;;;;4935045;29;20197;-82
2023/04/29 11:48:52;;;;;;;8.55;6.07;;;19.00;99.90;;;;;;4917265;29;20201;-81
2023/04/29 11:51:19;;;;;;;9.15;5.60;;;19.10;99.90;;;;;;4933608;29;20206;-80
2023/04/29 11:53:46;;;;;;;7.18;5.65;;;19.40;99.90;;;;;;4930269;29;20682;-78
2023/04/29 11:56:13;;;;;;;7.97;5.90;;;19.60;99.90;;;;;;4935017;29;20209;-80
2023/04/29 11:58:42;;;;;;;10.63;5.80;;;19.40;99.90;;;;;;4935831;29;20236;-79
2023/04/29 12:01:10;;;;;;;8.40;5.28;;;19.10;99.90;;;;;;4935610;29;20229;-80
2023/04/29 12:03:37;;;;;;;7.38;4.88;;;18.90;99.90;;;;;;4925677;29;20220;-80
2023/04/29 12:06:04;;;;;;;8.43;4.90;;;18.70;99.90;;;;;;4933504;29;20233;-83
2023/04/29 12:08:34;;;;;;;9.85;5.55;;;18.70;99.90;;;;;;4922347;29;20204;-82
2023/04/29 12:11:01;;;;;;;10.55;5.93;;;18.90;99.90;;;;;;4933264;29;20624;-81
2023/04/29 12:13:29;;;;;;;10.32;5.88;;;19.20;99.90;;;;;;4915253;29;20746;-81
2023/04/29 12:15:57;;;;;;;6.63;5.13;;;19.30;99.90;;;;;;4933289;29;20221;-79
2023/04/29 12:18:26;;;;;;;5.95;4.72;;;19.30;99.90;;;;;;4924553;29;20305;-80
2023/04/29 12:20:54;;;;;;;10.57;5.55;;;19.30;99.90;;;;;;4933446;29;20219;-81
2023/04/29 12:23:26;;;;;;;9.45;5.25;;;19.20;99.90;;;;;;4931825;29;20621;-79
2023/04/29 12:25:56;;;;;;;6.82;5.20;;;19.20;99.90;;;;;;4932371;29;20705;-81
2023/04/29 12:28:23;;;;;;;5.45;4.00;;;19.30;99.90;;;;;;4918653;29;20202;-80
2023/04/29 12:30:55;;;;;;;7.55;4.30;;;19.50;99.90;;;;;;4928916;29;20261;-82
2023/04/29 12:33:27;;;;;;;6.25;3.83;;;19.80;99.90;;;;;;4930545;29;20227;-80
2023/04/29 12:35:56;;;;;;;7.53;3.80;;;20.00;99.90;;;;;;4933849;29;20332;-79
2023/04/29 12:38:32;;;;;;;6.57;4.03;;;20.00;99.90;;;;;;4930667;29;20309;-80
2023/04/29 12:41:00;;;;;;;7.28;4.10;;;20.10;99.90;;;;;;4929996;29;20236;-79